createdAt,value
2022-12-18T00:02:12.613Z,99813.00
2022-12-18T00:04:39.313Z,99806.31
2022-12-18T00:07:05.749Z,99797.84
2022-12-18T00:09:32.188Z,99809.34
2022-12-18T00:14:44.287Z,99813.97
2022-12-18T00:17:10.661Z,99804.22
2022-12-18T00:19:37.153Z,99802.81
2022-12-18T00:22:03.773Z,99800.34
2022-12-18T00:24:30.272Z,99798.84
2022-12-18T00:26:56.649Z,99806.81
2022-12-18T00:29:23.042Z,99814.63
2022-12-18T00:31:49.617Z,99810.72
2022-12-18T00:34:16.188Z,99805.97
2022-12-18T00:36:42.733Z,99813.41
2022-12-18T00:39:10.879Z,99813.81
2022-12-18T00:41:55.791Z,99825.09
2022-12-18T00:44:22.355Z,99822.59
2022-12-18T00:46:49.226Z,99837.66
2022-12-18T00:49:20.626Z,99852.22
2022-12-18T00:51:47.345Z,99852.59
2022-12-18T00:54:14.316Z,99852.09
2022-12-18T00:56:48.189Z,99845.25
2022-12-18T00:59:15.572Z,99856.56
2022-12-18T01:01:42.179Z,99852.44
2022-12-18T01:04:09.136Z,99855.47
2022-12-18T01:06:35.632Z,99856.47
2022-12-18T01:09:03.107Z,99861.09
2022-12-18T01:11:29.554Z,99871.38
2022-12-18T01:13:56.291Z,99860.28
2022-12-18T01:16:23.231Z,99858.75
2022-12-18T01:18:53.424Z,99853.22
2022-12-18T01:21:19.986Z,99856.66
2022-12-18T01:23:46.964Z,99856.47
2022-12-18T01:26:16.525Z,99855.81
2022-12-18T01:28:44.776Z,99862.50
2022-12-18T01:31:14.284Z,99864.81
2022-12-18T01:33:41.481Z,99851.75
2022-12-18T01:36:08.698Z,99855.88
2022-12-18T01:38:35.107Z,99848.63
2022-12-18T01:41:02.761Z,99855.38
2022-12-18T01:43:42.117Z,99855.25
2022-12-18T01:46:08.601Z,99851.69
2022-12-18T01:48:35.035Z,99844.19
2022-12-18T01:51:02.254Z,99858.44
2022-12-18T01:53:29.096Z,99856.06
2022-12-18T01:56:00.089Z,99866.22
2022-12-18T01:58:57.173Z,99874.41
2022-12-18T02:01:24.180Z,99872.06
2022-12-18T02:03:51.168Z,99872.31
2022-12-18T02:06:26.933Z,99869.28
2022-12-18T02:09:03.068Z,99875.91
2022-12-18T02:11:56.617Z,99875.31
2022-12-18T02:14:31.523Z,99882.22
2022-12-18T02:17:06.469Z,99881.25
2022-12-18T02:19:50.945Z,99884.81
2022-12-18T02:22:35.727Z,99880.66
2022-12-18T02:25:21.696Z,99881.19
2022-12-18T02:27:51.507Z,99880.16
2022-12-18T02:30:18.720Z,99877.06
2022-12-18T02:32:50.468Z,99878.19
2022-12-18T02:35:23.072Z,99883.44
2022-12-18T02:37:49.692Z,99889.16
2022-12-18T02:40:18.195Z,99888.13
2022-12-18T02:42:44.713Z,99879.59
2022-12-18T02:45:11.545Z,99885.09
2022-12-18T02:47:41.569Z,99890.31
2022-12-18T02:50:44.755Z,99890.72
2022-12-18T02:53:19.986Z,99886.72
2022-12-18T02:55:49.305Z,99883.75
2022-12-18T02:58:21.322Z,99880.88
2022-12-18T03:01:08.328Z,99879.06
2022-12-18T03:03:43.243Z,99872.88
2022-12-18T03:06:41.209Z,99873.16
2022-12-18T03:09:11.867Z,99874.38
2022-12-18T03:12:01.346Z,99874.97
2022-12-18T03:14:32.098Z,99882.38
2022-12-18T03:17:02.873Z,99885.22
2022-12-18T03:19:32.388Z,99884.84
2022-12-18T03:22:02.712Z,99879.97
2022-12-18T03:24:32.285Z,99880.94
2022-12-18T03:27:03.385Z,99890.81
2022-12-18T03:29:54.336Z,99893.06
2022-12-18T03:32:34.141Z,99890.84
2022-12-18T03:35:04.996Z,99885.38
2022-12-18T03:37:31.530Z,99886.06
2022-12-18T03:39:58.118Z,99888.75
2022-12-18T03:42:50.882Z,99902.13
2022-12-18T03:45:25.131Z,99896.16
2022-12-18T03:47:59.252Z,99894.94
2022-12-18T03:50:33.182Z,99909.44
2022-12-18T03:53:11.054Z,99908.78
2022-12-18T03:55:38.229Z,99914.13
2022-12-18T03:58:07.756Z,99909.56
2022-12-18T04:00:35.101Z,99905.59
2022-12-18T04:03:04.477Z,99906.44
2022-12-18T04:05:32.924Z,99905.69
2022-12-18T04:07:59.909Z,99905.59
2022-12-18T04:10:26.423Z,99911.41
2022-12-18T04:12:57.090Z,99906.28
2022-12-18T04:15:23.542Z,99898.25
2022-12-18T04:17:50.872Z,99920.03
2022-12-18T04:20:18.360Z,99916.53
2022-12-18T04:22:44.778Z,99921.19
2022-12-18T04:25:11.176Z,99925.31
2022-12-18T04:27:37.689Z,99925.28
2022-12-18T04:30:04.727Z,99922.03
2022-12-18T04:32:31.934Z,99922.91
2022-12-18T04:34:58.329Z,99924.88
2022-12-18T04:37:24.770Z,99930.09
2022-12-18T04:39:51.647Z,99933.09
2022-12-18T04:42:20.416Z,99926.19
2022-12-18T04:44:46.831Z,99931.19
2022-12-18T04:47:13.261Z,99935.97
2022-12-18T04:49:39.739Z,99940.53
2022-12-18T04:52:06.116Z,99945.31
2022-12-18T04:54:32.529Z,99942.66
2022-12-18T04:56:58.944Z,99950.97
2022-12-18T04:59:25.425Z,99947.78
2022-12-18T05:01:51.922Z,99950.03
2022-12-18T05:04:18.455Z,99951.38
2022-12-18T05:06:46.313Z,99937.63
2022-12-18T05:09:12.854Z,99938.22
2022-12-18T05:11:39.270Z,99934.56
2022-12-18T05:14:05.748Z,99939.69
2022-12-18T05:16:32.526Z,99947.19
2022-12-18T05:18:59.009Z,99944.28
2022-12-18T05:21:25.420Z,99935.00
2022-12-18T05:23:51.885Z,99938.56
2022-12-18T05:26:19.479Z,99939.84
2022-12-18T05:28:45.837Z,99940.03
2022-12-18T05:31:12.383Z,99942.25
2022-12-18T05:33:39.389Z,99946.16
2022-12-18T05:36:08.353Z,99944.47
2022-12-18T05:38:37.680Z,99947.06
2022-12-18T05:41:04.994Z,99947.06
2022-12-18T05:43:31.984Z,99952.03
2022-12-18T05:45:58.560Z,99954.31
2022-12-18T05:48:24.998Z,99954.38
2022-12-18T05:50:52.196Z,99952.34
2022-12-18T05:53:20.873Z,99956.22
2022-12-18T05:55:48.180Z,99944.88
2022-12-18T05:58:15.485Z,99952.53
2022-12-18T06:00:44.045Z,99953.25
2022-12-18T06:03:11.761Z,99969.13
2022-12-18T06:05:43.641Z,99964.72
2022-12-18T06:08:11.516Z,99966.66
2022-12-18T06:10:38.432Z,99966.09
2022-12-18T06:13:05.630Z,99968.31
2022-12-18T06:15:32.138Z,99973.75
2022-12-18T06:17:58.888Z,99975.13
2022-12-18T06:20:30.439Z,99968.44
2022-12-18T06:22:59.638Z,99961.38
2022-12-18T06:25:26.071Z,99971.38
2022-12-18T06:27:52.533Z,99967.47
2022-12-18T06:30:18.965Z,99974.81
2022-12-18T06:32:45.622Z,99969.53
2022-12-18T06:35:15.148Z,99965.75
2022-12-18T06:37:41.707Z,99979.84
2022-12-18T06:40:08.772Z,99982.31
2022-12-18T06:42:35.263Z,99980.00
2022-12-18T06:45:01.708Z,99971.22
2022-12-18T06:47:28.086Z,99980.19
2022-12-18T06:49:54.486Z,99980.03
2022-12-18T06:52:20.908Z,99980.88
2022-12-18T06:54:47.339Z,99987.88
2022-12-18T06:57:13.703Z,99998.19
2022-12-18T06:59:40.186Z,100008.09
2022-12-18T07:02:06.762Z,100011.91
2022-12-18T07:04:33.267Z,100008.34
2022-12-18T07:06:59.741Z,100006.72
2022-12-18T07:09:26.507Z,100018.19
2022-12-18T07:11:53.376Z,100007.13
2022-12-18T07:14:19.869Z,100008.63
2022-12-18T07:16:46.407Z,100011.22
2022-12-18T07:19:12.914Z,100011.00
2022-12-18T07:21:39.609Z,100021.00
2022-12-18T07:24:06.819Z,100015.94
2022-12-18T07:26:33.378Z,100022.53
2022-12-18T07:28:59.876Z,100025.25
2022-12-18T07:31:27.914Z,100013.78
2022-12-18T07:33:55.051Z,100025.91
2022-12-18T07:36:24.233Z,100028.34
2022-12-18T07:38:52.530Z,100026.69
2022-12-18T07:41:19.780Z,100026.50
2022-12-18T07:43:46.642Z,100028.13
2022-12-18T07:46:16.764Z,100041.41
2022-12-18T07:48:45.394Z,100054.91
2022-12-18T07:51:16.449Z,100060.50
2022-12-18T07:53:43.709Z,100054.34
2022-12-18T07:56:29.439Z,100052.44
2022-12-18T07:58:58.842Z,100058.59
2022-12-18T08:01:26.335Z,100067.31
2022-12-18T08:03:52.824Z,100060.16
2022-12-18T08:06:19.634Z,100048.53
2022-12-18T08:08:49.310Z,100049.53
2022-12-18T08:11:16.650Z,100043.41
2022-12-18T08:13:43.345Z,100043.84
2022-12-18T08:16:10.030Z,100037.66
2022-12-18T08:18:39.661Z,100032.72
2022-12-18T08:21:17.770Z,100027.69
2022-12-18T08:23:44.432Z,100024.03
2022-12-18T08:26:14.420Z,100020.81
2022-12-18T08:28:41.373Z,100024.94
2022-12-18T08:31:08.946Z,100018.50
2022-12-18T08:33:38.143Z,100026.47
2022-12-18T08:36:05.556Z,100036.13
2022-12-18T08:38:35.101Z,100041.69
2022-12-18T08:41:05.426Z,100042.81
2022-12-18T08:43:50.588Z,100035.75
2022-12-18T08:46:17.989Z,100036.91
2022-12-18T08:48:44.655Z,100039.75
2022-12-18T08:51:11.391Z,100040.34
2022-12-18T08:53:38.932Z,100044.53
2022-12-18T08:56:06.484Z,100035.94
2022-12-18T08:58:33.016Z,100044.06
2022-12-18T09:01:04.145Z,100050.59
2022-12-18T09:03:30.960Z,100042.75
2022-12-18T09:05:57.563Z,100044.69
2022-12-18T09:08:24.220Z,100044.84
2022-12-18T09:10:51.556Z,100045.97
2022-12-18T09:13:19.307Z,100056.53
2022-12-18T09:15:48.493Z,100052.44
2022-12-18T09:18:16.743Z,100057.38
2022-12-18T09:20:43.348Z,100056.72
2022-12-18T09:23:10.622Z,100061.72
2022-12-18T09:25:38.554Z,100065.28
2022-12-18T09:28:08.208Z,100057.88
2022-12-18T09:30:35.150Z,100063.22
2022-12-18T09:33:02.522Z,100066.97
2022-12-18T09:35:29.099Z,100073.44
2022-12-18T09:37:55.830Z,100077.13
2022-12-18T09:40:26.226Z,100083.41
2022-12-18T09:42:56.853Z,100088.41
2022-12-18T09:45:23.864Z,100078.06
2022-12-18T09:47:53.302Z,100086.97
2022-12-18T09:50:35.157Z,100083.88
2022-12-18T09:53:12.043Z,100081.66
2022-12-18T09:55:42.189Z,100084.38
2022-12-18T09:58:24.376Z,100089.69
2022-12-18T10:00:53.433Z,100077.53
2022-12-18T10:03:19.919Z,100079.59
2022-12-18T10:06:01.393Z,100077.50
2022-12-18T10:08:30.537Z,100077.81
2022-12-18T10:11:13.126Z,100054.75
2022-12-18T10:13:53.538Z,100054.69
2022-12-18T10:16:52.120Z,100034.13
2022-12-18T10:19:37.523Z,100034.25
2022-12-18T10:22:45.531Z,100021.78
2022-12-18T10:25:23.760Z,100026.22
2022-12-18T10:27:56.241Z,100022.50
2022-12-18T10:30:24.666Z,100014.09
2022-12-18T10:32:51.378Z,100013.88
2022-12-18T10:35:21.745Z,100017.06
2022-12-18T10:38:03.630Z,100006.91
2022-12-18T10:40:30.373Z,99997.19
2022-12-18T10:43:14.143Z,100000.31
2022-12-18T10:45:40.791Z,99992.66
2022-12-18T10:48:20.230Z,99982.66
2022-12-18T10:53:38.381Z,99994.66
2022-12-18T10:56:07.191Z,99991.44
2022-12-18T10:58:37.065Z,99982.53
2022-12-18T11:01:23.596Z,99980.31
2022-12-18T11:04:01.997Z,99988.00
2022-12-18T11:06:29.945Z,99992.25
2022-12-18T11:09:00.713Z,99983.47
2022-12-18T11:11:27.936Z,99982.38
2022-12-18T11:14:07.443Z,99979.47
2022-12-18T11:16:37.262Z,99974.78
2022-12-18T11:19:25.298Z,99977.66
2022-12-18T11:21:52.005Z,99976.00
2022-12-18T11:24:28.449Z,99982.38
2022-12-18T11:26:59.701Z,99973.09
2022-12-18T11:29:33.729Z,99960.91
2022-12-18T11:32:25.104Z,99970.41
2022-12-18T11:34:59.313Z,99969.09
2022-12-18T11:37:26.611Z,99955.31
2022-12-18T11:39:58.789Z,99955.22
2022-12-18T11:42:49.308Z,99961.25
2022-12-18T11:45:22.869Z,99967.25
2022-12-18T11:47:58.761Z,99976.44
2022-12-18T11:50:30.592Z,99974.94
2022-12-18T11:53:01.542Z,99979.94
2022-12-18T11:55:48.849Z,99970.91
2022-12-18T11:58:31.738Z,99969.56
2022-12-18T12:01:15.417Z,99969.72
2022-12-18T12:03:57.142Z,99964.56
2022-12-18T12:06:36.290Z,99961.91
2022-12-18T12:09:08.462Z,99957.31
2022-12-18T12:12:10.188Z,99964.41
2022-12-18T12:15:07.702Z,99981.03
2022-12-18T12:17:41.851Z,99984.13
2022-12-18T12:20:43.169Z,99980.84
2022-12-18T12:23:26.064Z,99990.59
2022-12-18T12:26:00.396Z,99989.25
2022-12-18T12:28:44.506Z,99986.78
2022-12-18T12:31:44.158Z,99978.38
2022-12-18T12:34:35.449Z,99986.97
2022-12-18T12:37:12.522Z,99992.72
2022-12-18T12:39:43.325Z,99995.56
2022-12-18T12:42:50.509Z,100001.69
2022-12-18T12:45:29.317Z,100004.75
2022-12-18T12:47:58.631Z,100001.69
2022-12-18T12:50:25.852Z,100008.97
2022-12-18T12:52:56.268Z,100008.00
2022-12-18T12:55:28.636Z,100017.94
2022-12-18T12:57:54.958Z,100015.28
2022-12-18T13:00:21.829Z,100018.72
2022-12-18T13:03:02.646Z,100025.00
2022-12-18T13:05:50.397Z,100012.38
2022-12-18T13:08:26.560Z,99995.88
2022-12-18T13:11:15.381Z,100002.34
2022-12-18T13:13:54.667Z,99998.19
2022-12-18T13:16:25.822Z,99993.78
2022-12-18T13:18:55.312Z,99995.69
2022-12-18T13:21:28.221Z,100009.50
2022-12-18T13:23:55.172Z,100008.56
2022-12-18T13:26:28.904Z,100016.00
2022-12-18T13:28:57.515Z,100004.94
2022-12-18T13:34:31.827Z,100006.00
2022-12-18T13:37:33.783Z,100006.38
2022-12-18T13:40:00.702Z,99999.34
2022-12-18T13:42:48.817Z,99996.66
2022-12-18T13:46:01.033Z,99994.75
2022-12-18T13:48:30.300Z,99998.59
2022-12-18T13:51:11.499Z,100002.38
2022-12-18T13:53:40.377Z,100005.44
2022-12-18T13:56:07.299Z,100005.09
2022-12-18T13:58:34.031Z,100006.09
2022-12-18T14:01:02.961Z,100006.84
2022-12-18T14:03:31.334Z,100009.38
2022-12-18T14:06:06.880Z,99998.28
2022-12-18T14:08:38.499Z,99999.06
2022-12-18T14:11:07.522Z,99992.59
2022-12-18T14:13:42.083Z,100005.63
2022-12-18T14:16:15.157Z,100010.41
2022-12-18T14:18:51.036Z,100010.88
2022-12-18T14:21:27.108Z,100007.72
2022-12-18T14:24:14.525Z,100009.44
2022-12-18T14:26:41.588Z,99996.56
2022-12-18T14:29:30.793Z,99997.16
2022-12-18T14:32:20.708Z,100007.94
2022-12-18T14:34:51.159Z,99992.94
2022-12-18T14:37:22.464Z,99987.19
2022-12-18T14:39:55.982Z,99976.00
2022-12-18T14:42:22.440Z,99980.28
2022-12-18T14:45:12.768Z,99975.78
2022-12-18T14:47:35.300Z,99971.44
2022-12-18T14:50:01.928Z,99958.25
2022-12-18T14:52:32.456Z,99957.00
2022-12-18T14:54:58.951Z,99955.47
2022-12-18T14:57:29.375Z,99955.56
2022-12-18T15:00:23.789Z,99956.16
2022-12-18T15:02:57.920Z,99973.38
2022-12-18T15:05:29.945Z,99963.09
2022-12-18T15:07:58.741Z,99965.19
2022-12-18T15:10:31.289Z,99960.69
2022-12-18T15:12:57.674Z,99960.25
2022-12-18T15:15:39.319Z,99951.63
2022-12-18T15:18:08.675Z,99961.56
2022-12-18T15:20:45.062Z,99959.31
2022-12-18T15:23:18.843Z,99962.50
2022-12-18T15:25:46.341Z,99966.75
2022-12-18T15:28:20.891Z,99955.28
2022-12-18T15:31:00.665Z,99967.28
2022-12-18T15:33:32.999Z,99976.84
2022-12-18T15:36:01.704Z,99972.94
2022-12-18T15:38:28.374Z,99962.63
2022-12-18T15:40:55.267Z,99948.84
2022-12-18T15:43:36.073Z,99961.25
2022-12-18T15:46:04.838Z,99947.31
2022-12-18T15:48:33.990Z,99962.63
2022-12-18T15:51:01.093Z,99952.34
2022-12-18T15:53:31.655Z,99940.28
2022-12-18T15:56:17.909Z,99950.34
2022-12-18T15:58:44.981Z,99935.34
2022-12-18T16:01:11.928Z,99954.97
2022-12-18T16:03:39.038Z,99943.47
2022-12-18T16:06:05.898Z,99938.84
2022-12-18T16:08:32.356Z,99937.19
2022-12-18T16:10:59.224Z,99936.38
2022-12-18T16:13:25.727Z,99929.88
2022-12-18T16:15:52.383Z,99932.00
2022-12-18T16:18:18.929Z,99924.63
2022-12-18T16:20:45.343Z,99912.84
2022-12-18T16:23:11.760Z,99917.81
2022-12-18T16:25:38.199Z,99928.13
2022-12-18T16:28:04.659Z,99908.69
2022-12-18T16:30:33.058Z,99917.44
2022-12-18T16:33:05.012Z,99918.38
2022-12-18T16:35:31.490Z,99913.59
2022-12-18T16:37:57.928Z,99926.00
2022-12-18T16:40:24.401Z,99910.53
2022-12-18T16:42:50.963Z,99916.63
2022-12-18T16:45:18.542Z,99898.91
2022-12-18T16:47:46.335Z,99904.25
2022-12-18T16:50:13.077Z,99904.03
2022-12-18T16:52:39.966Z,99901.78
2022-12-18T16:55:06.499Z,99911.47
2022-12-18T16:57:33.160Z,99894.53
2022-12-18T17:00:04.727Z,99910.94
2022-12-18T17:02:32.093Z,99908.22
2022-12-18T17:04:59.026Z,99911.72
2022-12-18T17:07:26.886Z,99909.81
2022-12-18T17:09:54.184Z,99903.22
2022-12-18T17:12:21.348Z,99910.25
2022-12-18T17:14:47.850Z,99907.88
2022-12-18T17:17:23.859Z,99900.09
2022-12-18T17:19:52.241Z,99906.03
2022-12-18T17:22:19.664Z,99911.31
2022-12-18T17:24:47.356Z,99910.53
2022-12-18T17:27:14.425Z,99913.59
2022-12-18T17:29:47.181Z,99921.03
2022-12-18T17:32:15.424Z,99908.28
2022-12-18T17:34:41.891Z,99908.13
2022-12-18T17:37:08.592Z,99911.94
2022-12-18T17:39:35.038Z,99900.47
2022-12-18T17:42:01.492Z,99893.25
2022-12-18T17:44:28.059Z,99892.66
2022-12-18T17:46:54.521Z,99897.50
2022-12-18T17:49:21.542Z,99907.59
2022-12-18T17:51:48.461Z,99889.66
2022-12-18T17:54:14.957Z,99890.66
2022-12-18T17:56:41.608Z,99889.88
2022-12-18T17:59:08.055Z,99887.56
2022-12-18T18:01:37.297Z,99898.72
2022-12-18T18:04:07.528Z,99896.94
2022-12-18T18:06:34.468Z,99909.56
2022-12-18T18:09:04.335Z,99903.25
2022-12-18T18:11:49.268Z,99898.63
2022-12-18T18:14:20.017Z,99906.06
2022-12-18T18:16:49.258Z,99898.72
2022-12-18T18:19:18.330Z,99884.91
2022-12-18T18:21:47.086Z,99882.47
2022-12-18T18:24:16.269Z,99877.91
2022-12-18T18:26:43.063Z,99866.28
2022-12-18T18:29:20.822Z,99872.13
2022-12-18T18:31:47.868Z,99881.84
2022-12-18T18:34:16.556Z,99866.19
2022-12-18T18:36:43.231Z,99860.84
2022-12-18T18:39:10.465Z,99871.47
2022-12-18T18:41:37.000Z,99856.41
2022-12-18T18:44:04.169Z,99862.09
2022-12-18T18:46:30.572Z,99856.38
2022-12-18T18:48:57.031Z,99868.41
2022-12-18T18:51:23.894Z,99854.69
2022-12-18T18:53:52.508Z,99853.41
2022-12-18T18:56:45.529Z,99858.09
2022-12-18T18:59:13.733Z,99852.38
2022-12-18T19:01:40.339Z,99836.00
2022-12-18T19:04:06.858Z,99838.66
2022-12-18T19:06:33.565Z,99852.00
2022-12-18T19:09:02.360Z,99849.16
2022-12-18T19:11:48.251Z,99839.03
2022-12-18T19:14:15.695Z,99858.66
2022-12-18T19:16:43.641Z,99832.75
2022-12-18T19:19:10.322Z,99830.09
2022-12-18T19:21:38.153Z,99832.94
2022-12-18T19:24:05.902Z,99832.63
2022-12-18T19:26:32.329Z,99839.63
2022-12-18T19:29:07.143Z,99828.81
2022-12-18T19:31:36.352Z,99820.09
2022-12-18T19:34:04.919Z,99813.56
2022-12-18T19:36:32.844Z,99801.34
2022-12-18T19:39:01.065Z,99800.41
2022-12-18T19:41:31.158Z,99792.91
2022-12-18T19:43:58.383Z,99792.91
2022-12-18T19:46:25.069Z,99792.38
2022-12-18T19:48:51.799Z,99789.16
2022-12-18T19:51:26.125Z,99792.41
2022-12-18T19:53:58.493Z,99791.00
2022-12-18T19:56:27.829Z,99785.50
2022-12-18T19:58:54.978Z,99785.19
2022-12-18T20:01:23.644Z,99793.97
2022-12-18T20:03:52.200Z,99787.06
2022-12-18T20:06:28.538Z,99774.13
2022-12-18T20:09:00.347Z,99766.50
2022-12-18T20:11:27.584Z,99759.25
2022-12-18T20:13:53.944Z,99752.75
2022-12-18T20:16:20.647Z,99757.13
2022-12-18T20:18:49.168Z,99748.56
2022-12-18T20:21:15.956Z,99756.38
2022-12-18T20:23:42.766Z,99748.56
2022-12-18T20:26:09.698Z,99751.06
2022-12-18T20:28:36.065Z,99750.28
2022-12-18T20:31:08.137Z,99748.03
2022-12-18T20:33:37.165Z,99755.81
2022-12-18T20:36:06.233Z,99746.09
2022-12-18T20:38:33.994Z,99747.44
2022-12-18T20:41:05.043Z,99747.06
2022-12-18T20:43:31.519Z,99751.47
2022-12-18T20:46:07.790Z,99746.13
2022-12-18T20:48:34.757Z,99730.25
2022-12-18T20:51:07.350Z,99734.66
2022-12-18T20:53:34.701Z,99723.22
2022-12-18T20:56:02.344Z,99733.34
2022-12-18T20:58:28.793Z,99728.00
2022-12-18T21:01:13.276Z,99733.50
2022-12-18T21:03:40.905Z,99740.00
2022-12-18T21:06:07.519Z,99732.19
2022-12-18T21:08:34.157Z,99707.78
2022-12-18T21:11:38.509Z,99723.81
2022-12-18T21:14:19.784Z,99733.50
2022-12-18T21:16:46.680Z,99739.81
2022-12-18T21:19:16.196Z,99707.38
2022-12-18T21:21:43.665Z,99700.50
2022-12-18T21:24:11.481Z,99701.28
2022-12-18T21:26:44.894Z,99700.72
2022-12-18T21:29:15.417Z,99698.78
2022-12-18T21:31:42.810Z,99698.78
2022-12-18T21:34:15.402Z,99699.53
2022-12-18T21:36:41.779Z,99697.66
2022-12-18T21:39:08.362Z,99718.84
2022-12-18T21:41:53.385Z,99700.31
2022-12-18T21:44:22.115Z,99709.31
2022-12-18T21:46:55.013Z,99702.03
2022-12-18T21:49:25.173Z,99694.81
2022-12-18T21:51:54.451Z,99691.72
2022-12-18T21:54:21.268Z,99703.78
2022-12-18T21:56:51.020Z,99692.50
2022-12-18T21:59:22.951Z,99690.41
2022-12-18T22:01:50.748Z,99687.91
2022-12-18T22:04:18.718Z,99680.66
2022-12-18T22:06:46.008Z,99678.00
2022-12-18T22:09:17.025Z,99684.09
2022-12-18T22:11:43.909Z,99674.19
2022-12-18T22:14:11.045Z,99671.88
2022-12-18T22:16:37.550Z,99676.28
2022-12-18T22:19:04.879Z,99673.03
2022-12-18T22:21:37.162Z,99674.94
2022-12-18T22:24:06.734Z,99682.41
2022-12-18T22:26:39.815Z,99676.28
2022-12-18T22:29:25.689Z,99672.66
2022-12-18T22:31:52.181Z,99681.81
2022-12-18T22:34:22.795Z,99683.34
2022-12-18T22:36:49.536Z,99674.19
2022-12-18T22:39:24.424Z,99683.16
2022-12-18T22:41:51.984Z,99688.50
2022-12-18T22:44:18.770Z,99672.28
2022-12-18T22:47:05.532Z,99664.44
2022-12-18T22:49:33.908Z,99672.44
2022-12-18T22:52:01.817Z,99665.97
2022-12-18T22:54:28.202Z,99656.44
2022-12-18T22:56:55.439Z,99657.00
2022-12-18T22:59:23.080Z,99658.72
2022-12-18T23:01:51.452Z,99655.69
2022-12-18T23:04:30.022Z,99641.75
2022-12-18T23:07:04.478Z,99641.53
2022-12-18T23:09:31.002Z,99634.09
2022-12-18T23:11:57.752Z,99633.94
2022-12-18T23:14:24.246Z,99632.56
2022-12-18T23:16:51.479Z,99631.59
2022-12-18T23:19:19.764Z,99632.03
2022-12-18T23:21:46.166Z,99621.53
2022-12-18T23:24:12.578Z,99614.63
2022-12-18T23:26:39.003Z,99613.69
2022-12-18T23:29:05.924Z,99608.56
2022-12-18T23:31:38.415Z,99600.34
2022-12-18T23:34:06.820Z,99594.03
2022-12-18T23:36:35.877Z,99580.88
2022-12-18T23:39:15.440Z,99581.84
2022-12-18T23:41:55.838Z,99565.81
2022-12-18T23:44:22.327Z,99581.25
2022-12-18T23:46:48.735Z,99579.53
2022-12-18T23:49:15.190Z,99571.16
2022-12-18T23:51:41.570Z,99583.16
2022-12-18T23:54:09.246Z,99554.16
2022-12-18T23:56:35.763Z,99581.81
2022-12-18T23:59:02.218Z,99561.41
